Anderson, SC (29622)

3:42 AM EDT on June 28, 2017 (GMT -0400)
Southwood Area | | Change Station

Elev 722 ft 34.49 °N, 82.66 °W | Updated 6 seconds ago

Partly Cloudy
Partly Cloudy
61.7 °F
Feels Like 61.7 °F
N
0.0
Wind Variable Wind from ESE
Gusts 0.0 mph

Today
High -- | Low -- °F
--% Chance of Precip.
Yesterday
High -- | Low -- °F
Precip. -- in
Pressure 30.09 in
Visibility 10.0 miles
Clouds Few 8000 ft
Dew Point 58 °F
Humidity 87%
Rainfall 0.00 in
Snow Depth Not available.
6:20 AM 8:47 PM
Waxing Crescent, 23% visible
METAR KAND 280656Z AUTO 00000KT 10SM FEW080 19/12 A3012 RMK AO2 SLP189 T01890122
Pressure 30.09 in
Visibility 10.0 miles
Clouds Few 8000 ft
Dew Point 58 °F
Humidity 87%
Rainfall 0.00 in
Snow Depth Not available.
6:20 AM 8:47 PM
Waxing Crescent, 23% visible
METAR KAND 280656Z AUTO 00000KT 10SM FEW080 19/12 A3012 RMK AO2 SLP189 T01890122

Get Severe Weather Alerts

Thanks for signing up!

Be on the lookout for a verification email in your inbox.

You'll start receiving the daily forecast at 6 AM.

×

10-Day Weather Forecast

Almanac

Astronomy

Jun. 28, 2017 Rise Set
Actual Time
Civil Twilight
Nautical Twilight
Astronomical Twilight
Moon
Length of Visible Light
Length of Day
Tomorrow will be .
, % of the Moon is Illuminated

Today's Extremes

State Highs State Lows

Community

WunderPhotos

Category 6

Welcome to Category 6. This is the collective home for Weather Underground's featured writeups by Dr. Jeff Masters (right), Bob Henson (left), Chris Burt, and other regular contributors.

Nearby

Air Quality

  Air Quality AQ Index Pollutant
Not available.

Snow Depth

Station Depth Elevation

Earthquake Activity

City Distance Mag. Time & Date
Minimum magnitude displayed is 2.5.

Coastal Water Temperatures

Place Temperature

Stations

Nearby Weather Stations

Station Location Temp. Windchill Dew Point Humidity Wind Precip. Elev Updated Type
                   

Watches & Warnings

There are currently no watches in effect.